AirNav   Bose Proflight Series 2 Wireless Aviation Headset
 
 1111 users online  

8NJ3 Lembo Heliport
Paterson, New Jersey, USA

GOING TO PATERSON?


FAA INFORMATION EFFECTIVE 07 NOVEMBER 2019

Location

FAA Identifier: 8NJ3
Lat/Long: 40-54-10.3560N 074-07-58.5150W
40-54.172600N 074-07.975250W
40.9028767,-74.1329208
(estimated)
Elevation: 40 ft. / 12 m (estimated)
Variation: 13W (1985)
From city: 2 miles E of PATERSON, NJ
Time zone: UTC -5 (UTC -4 during Daylight Saving Time)
Zip code: 07514

Heliport Operations

Heliport use: CLOSED INDEFINITELY
Activation date: 08/1977
Control tower: no
ARTCC: NEW YORK CENTER
FSS: MILLVILLE FLIGHT SERVICE STATION
Attendance: UNATNDD
Wind indicator: no
Segmented circle: no

Heliport Communications

WX ASOS at TEB (5 nm SE): 132.025 (201-393-0855)
WX ASOS at CDW (7 nm W): 135.5 (973-575-4417)
WX ASOS at EWR (13 nm S): PHONE 973-621-2892
WX AWOS-3PT at JRB (13 nm SE): 128.175 (212-425-1534)
WX ASOS at LGA (14 nm SE): PHONE 718-672-6317
WX AWOS-3 at MMU (14 nm SW): PHONE 973-290-0135
WX AWOS-3 at LDJ (18 nm S): 124.025 (908-862-7383)

Nearby radio navigation aids

VOR radial/distance  VOR name  Freq  Var
TEBr326/4.6TETERBORO VOR/DME108.4011W
LGAr313/14.0LA GUARDIA VOR/DME113.1012W
CRIr339/20.5CANARSIE VOR/DME112.3011W
SAXr129/20.9SPARTA VORTAC115.7011W
JFKr327/23.1KENNEDY VOR/DME115.9012W
BWZr090/31.9BROADWAY VOR/DME114.2011W
SBJr065/33.7SOLBERG VOR/DME112.9010W
CMKr240/33.7CARMEL VOR/DME116.6012W
STWr110/33.8STILLWATER VOR/DME109.6011W
COLr013/35.5COLTS NECK VOR/DME115.4011W
HUOr157/36.8HUGUENOT VOR/DME116.1011W
DPKr292/38.2DEER PARK VOR/DME117.7012W

 
NDB name  Hdg/Dist  Freq  Var  ID
TORBY012/5.921412WTE - .
CHATHAM067/16.625413WCAT -.-. .- -
BABYLON306/36.727514WBBN -... -... -.
STANWYCK198/37.726112WSKU ... -.- ..-

Heliport Services

Runway Information

Helipad H1

Dimensions: 100 x 100 ft. / 30 x 30 m
Surface: asphalt
Traffic pattern: leftleft

Heliport Ownership and Management from official FAA records

Ownership: Privately-owned
Owner: LEMBO RESEARCH & DEV. CO, INC
235 MCLEAN BLVD
PATERSON, NJ 07504
Phone 973-345-5556
Manager: PAUL LEMBO
235 MCLEAN BLVD
PATERSON, NJ 07504
Phone 973-345-5555
OTHER CONTACT; FRANCINE LEMBO 201-519-7636

Additional Remarks

FOR CD CTC NEW YORK APCH AT 800-645-3206.
(ARPT STATUS) ARPT CLSD INDEFLY.

Instrument Procedures

There are no published instrument procedures at 8NJ3.

Some nearby airports with instrument procedures:

KTEB - Teterboro Airport (5 nm SE)
KCDW - Essex County Airport (7 nm W)
N07 - Lincoln Park Airport (9 nm W)
KJRA - West 30th St Heliport (11 nm SE)
6N5 - East 34th Street Heliport (12 nm SE)
KEWR - Newark Liberty International Airport (13 nm S)
KJRB - Downtown Manhattan/Wall Street Heliport (13 nm SE)
KLGA - LaGuardia Airport (14 nm SE)
KMMU - Morristown Municipal Airport (14 nm SW)
4N1 - Greenwood Lake Airport (17 nm NW)
 
Loc | Ops | Rwys | IFR | FBO | Links
Com | Nav | Svcs | Stats | Notes
Area around 8NJ3 (Lembo Heliport)
 
Road maps at: MapQuest Bing Google
 
Aerial photo
No photo
 
Sectional chart

 
Airport distance calculator
Flying to Lembo Heliport? Find the distance to fly.

From to 8NJ3

Sunrise and sunset
Times for 11-Nov-2019
 Local
(UTC-5)
 Zulu
(UTC)
Morning civil twilight06:1111:11
Sunrise06:4011:40
Sunset16:4121:41
Evening civil twilight17:1022:10

Current date and time
Zulu (UTC)  11-Nov-2019 22:37:51
Local (UTC-5)  11-Nov-2019 17:37:51
 
METAR
KTEB 
4nm SE 
112151Z 20004KT 10SM CLR 14/08 A2995 RMK AO2 SLP142 T01390083
KCDW 
7nm W 
112153Z 00000KT 10SM CLR 14/04 A2996 RMK AO2 SLP151 T01440044
KNYC 
10nm SE 
112151Z AUTO 10SM CLR 13/07 A2999 RMK AO2 SLP146 T01330067 $
KEWR 
13nm S 
112151Z 12005KT 10SM FEW150 BKN250 13/08 A2996 RMK AO2 SLP144 T01330078 $
KJRB 
13nm SE 
112156Z AUTO 11003KT CLR 14/08 A2997 RMK AO2 SLP150 T01390083 PWINO
KLGA 
13nm SE 
112151Z 17009KT 10SM FEW140 BKN250 13/06 A2996 RMK AO2 SLP146 T01330061 $
KMMU 
15nm SW 
112145Z 00000KT 10SM BKN250 12/06 A2996
KLDJ 
18nm S 
112215Z AUTO 00000KT 10SM CLR 13/08 A2996 RMK AO2 T01250083
TAF
KTEB 
4nm SE 
111933Z 1120/1224 VRB05KT P6SM SCT120 BKN250 FM120300 20005KT P6SM SCT040 BKN150 FM121100 24010G17KT 5SM -RA SCT020 OVC035 FM121300 31013G22KT 4SM -RA BR OVC015 FM121500 31013G23KT 3SM -RA BR SCT010 OVC012 TEMPO 1215/1217 2SM -RASN FM121700 31014G24KT P6SM SCT010 BKN020 FM121900 32014G24KT P6SM FEW020 BKN100
KEWR 
13nm S 
111933Z 1120/1224 16005KT P6SM SCT150 BKN250 FM120300 20006KT P6SM SCT040 BKN150 FM121100 24012G19KT 5SM -RA BR SCT020 OVC035 FM121300 31013G21KT 4SM -RA BR OVC015 FM121500 31016G24KT 3SM -RA BR SCT010 OVC012 TEMPO 1215/1217 2SM -RASN FM121700 32017G26KT P6SM SCT010 BKN020 FM121900 32018G27KT P6SM FEW020 BKN100
KLGA 
13nm SE 
111933Z 1120/1224 05006KT P6SM SCT120 BKN250 FM112200 16007KT P6SM FEW050 SCT150 BKN250 FM120300 21009KT P6SM SCT040 BKN150 FM121200 24013G20KT 5SM -RA BR SCT020 OVC035 FM121400 31015G23KT 4SM -RA BR OVC015 FM121600 32016G24KT 2SM -RA BR SCT010 OVC012 TEMPO 1216/1218 2SM -RASN FM121800 32017G26KT P6SM BKN020 FM122000 32018G28KT P6SM FEW020 BKN100
NOTAMs
Click for the latest NOTAMs
NOTAMs are issued by the DoD/FAA and will open in a separate window not controlled by AirNav.

 

 
 

Would you like to see your business listed on this page?

 If your business provides an interesting product or service to pilots, flight crews, aircraft, or users of the Lembo Heliport, you should consider listing it here.  To start the listing process, click on the button below
 
Add a business
 

Other Pages about Lembo Heliport

Update a link
 
Copyright © AirNav, LLC. All rights reserved. Privacy Policy  Contact